Time;durP1;ratioP1;P1;durP2;ratioP2;P2;SDS_P1;SDS_P2;PMS_P1;PMS_P2;Temp;Humidity;BMP_temperature;BMP_pressure;BME280_temperature;BME280_humidity;BME280_pressure;Samples;Min_cycle;Max_cycle;Signal;HPM_P1;HPM_P2
2021/08/03 00:02:23;;;;;;;4.15;2.30;;;;;;;18.23;66.44;99101.67;1713571;83;21092;-42
2021/08/03 00:04:54;;;;;;;3.75;2.75;;;;;;;18.24;66.53;99105.38;1715283;82;20941;-42
2021/08/03 00:07:20;;;;;;;2.85;2.12;;;;;;;18.29;66.43;99106.88;1743226;82;21076;-42
2021/08/03 00:09:48;;;;;;;3.05;2.58;;;;;;;18.24;66.43;99105.38;1686612;83;21551;-42
2021/08/03 00:12:17;;;;;;;2.92;2.40;;;;;;;18.20;66.51;99109.37;1707339;84;21140;-42
2021/08/03 00:14:49;;;;;;;3.90;2.47;;;;;;;18.14;66.56;99111.81;1707350;84;21555;-42
2021/08/03 00:17:20;;;;;;;4.75;2.08;;;;;;;18.17;66.43;99105.48;1707443;84;21077;-41
2021/08/03 00:19:49;;;;;;;2.70;2.05;;;;;;;18.27;66.46;99102.38;1707500;84;20941;-42
2021/08/03 00:22:16;;;;;;;2.50;2.15;;;;;;;18.30;66.33;99100.79;1707502;84;21515;-42
2021/08/03 00:24:42;;;;;;;4.92;2.30;;;;;;;18.30;66.37;99098.80;1707458;84;21142;-42
2021/08/03 00:27:09;;;;;;;2.98;2.10;;;;;;;18.33;66.36;99096.61;1707426;84;21009;-42
2021/08/03 00:29:36;;;;;;;2.85;1.95;;;;;;;18.38;66.22;99096.13;1713850;83;21013;-42
2021/08/03 00:32:06;;;;;;;2.65;1.95;;;;;;;18.43;66.15;99097.02;1714852;83;21017;-42
2021/08/03 00:34:37;;;;;;;8.53;2.02;;;;;;;18.49;66.08;99102.81;1715076;83;21514;-42
2021/08/03 00:37:09;;;;;;;3.27;1.90;;;;;;;18.60;65.76;99106.16;1708727;83;21129;-42
2021/08/03 00:39:37;;;;;;;2.90;2.10;;;;;;;18.64;65.59;99108.24;1715026;83;21491;-42
2021/08/03 00:42:06;;;;;;;5.47;2.20;;;;;;;18.63;65.27;99106.12;1751175;81;21602;-42
2021/08/03 00:44:47;;;;;;;3.77;2.00;;;;;;;18.61;65.58;99103.60;1715318;83;21036;-42
2021/08/03 00:47:22;;;;;;;3.08;2.17;;;;;;;18.60;65.36;99099.30;1714231;83;21653;-42
2021/08/03 00:49:51;;;;;;;2.63;1.93;;;;;;;18.56;65.22;99102.11;1751562;81;21833;-42
2021/08/03 00:52:17;;;;;;;2.50;2.00;;;;;;;18.56;65.18;99103.48;1751079;82;21004;-42
2021/08/03 00:54:45;;;;;;;3.25;2.22;;;;;;;18.62;65.01;99104.56;1751381;82;21056;-42
2021/08/03 00:57:13;;;;;;;3.35;2.10;;;;;;;18.65;65.22;99105.09;1751184;82;21032;-42
2021/08/03 00:59:41;;;;;;;5.67;2.30;;;;;;;18.70;64.71;99110.69;1751188;82;21559;-42
2021/08/03 01:02:10;;;;;;;3.00;2.05;;;;;;;18.72;64.45;99107.53;1751172;82;21151;-42
2021/08/03 01:04:37;;;;;;;3.30;2.22;;;;;;;18.73;64.61;99109.87;1751362;82;21500;-42
2021/08/03 01:07:39;;;;;;;2.87;1.90;;;;;;;18.77;64.37;99110.58;1721129;83;21020;-42
2021/08/03 01:10:34;;;;;;;2.10;1.90;;;;;;;18.80;64.24;99111.69;1686490;85;21027;-42
2021/08/03 01:13:43;;;;;;;2.65;2.05;;;;;;;18.84;64.00;99123.38;1686299;85;21534;-42
2021/08/03 01:16:27;;;;;;;3.92;1.77;;;;;;;18.88;63.84;99122.75;1713636;83;21527;-42
2021/08/03 01:19:22;;;;;;;2.40;2.20;;;;;;;18.90;63.67;99122.48;1751037;81;21065;-42
2021/08/03 01:21:54;;;;;;;5.08;2.47;;;;;;;18.91;63.48;99128.16;1750970;81;21480;-42
2021/08/03 01:24:52;;;;;;;3.65;2.30;;;;;;;18.90;63.37;99127.98;1715060;83;21059;-42
2021/08/03 01:28:05;;;;;;;2.83;2.47;;;;;;;18.81;63.41;99135.22;1741810;80;20997;-42
2021/08/03 01:30:33;;;;;;;4.65;2.50;;;;;;;18.60;63.81;99128.91;1751368;82;21132;-42
2021/08/03 01:33:00;;;;;;;4.35;2.85;;;;;;;18.44;64.21;99137.61;1751302;82;21024;-42
2021/08/03 01:35:27;;;;;;;4.08;2.52;;;;;;;18.34;64.43;99143.45;1715045;83;21021;-42
2021/08/03 01:37:58;;;;;;;4.47;2.30;;;;;;;18.32;64.59;99147.19;1715141;83;21036;-41
2021/08/03 01:40:25;;;;;;;;;;;;;;;18.29;64.70;99145.29;1717684;83;21048;-42
2021/08/03 01:42:53;;;;;;;5.03;2.55;;;;;;;18.23;64.90;99152.44;1682321;85;21769;-41
2021/08/03 01:45:22;;;;;;;4.87;2.40;;;;;;;18.04;65.40;99154.48;1751075;82;21476;-42
2021/08/03 01:47:50;;;;;;;4.05;2.52;;;;;;;18.00;65.54;99151.80;1732139;82;21041;-42
2021/08/03 01:50:18;;;;;;;3.30;2.55;;;;;;;17.97;65.74;99151.83;1715357;83;20996;-42
2021/08/03 01:52:47;;;;;;;5.03;2.52;;;;;;;17.99;65.75;99157.69;1750970;81;21041;-42
2021/08/03 01:55:15;;;;;;;3.92;2.45;;;;;;;18.02;65.65;99154.11;1750685;81;21221;-42
2021/08/03 01:57:43;;;;;;;4.10;2.83;;;;;;;18.11;65.46;99157.11;1751114;82;20930;-42
2021/08/03 02:00:13;;;;;;;;;;;;;;;18.18;65.20;99166.62;1753441;81;20934;-42
2021/08/03 02:02:43;;;;;;;3.98;2.20;;;;;;;18.22;65.05;99165.97;1751644;81;20204;-42
2021/08/03 02:05:11;;;;;;;2.95;2.25;;;;;;;18.16;65.17;99173.11;1687291;83;21009;-41
2021/08/03 02:07:40;;;;;;;3.73;2.37;;;;;;;18.20;64.86;99177.35;1750926;81;21875;-42
2021/08/03 02:10:10;;;;;;;2.50;2.10;;;;;;;18.24;64.52;99173.98;1696871;83;21009;-41
2021/08/03 02:12:37;;;;;;;3.58;2.20;;;;;;;18.29;64.21;99178.81;1715480;83;21009;-41
2021/08/03 02:15:06;;;;;;;5.35;2.42;;;;;;;18.30;63.88;99177.63;1714942;83;21531;-42
2021/08/03 02:17:32;;;;;;;5.92;2.35;;;;;;;18.32;63.56;99189.73;1715103;82;21024;-42
2021/08/03 02:20:07;;;;;;;5.30;2.37;;;;;;;18.33;63.64;99191.30;1705056;84;21189;-42
2021/08/03 02:22:35;;;;;;;5.03;2.75;;;;;;;18.31;63.67;99192.87;1680342;84;21041;-42
2021/08/03 02:25:09;;;;;;;3.27;2.10;;;;;;;18.30;63.66;99200.34;1705644;84;21001;-42
2021/08/03 02:27:37;;;;;;;6.12;2.40;;;;;;;18.32;63.43;99203.45;1716620;83;21044;-42
2021/08/03 02:30:06;;;;;;;4.45;2.70;;;;;;;18.36;63.24;99213.00;1712454;83;21590;-41
2021/08/03 02:33:07;;;;;;;5.80;2.35;;;;;;;18.39;63.19;99212.97;1698903;84;21117;-42
2021/08/03 02:35:47;;;;;;;5.55;2.47;;;;;;;18.40;63.28;99211.75;1724865;83;21045;-42
2021/08/03 02:38:18;;;;;;;3.50;2.58;;;;;;;18.40;63.47;99211.75;1712244;83;21075;-42
2021/08/03 02:40:45;;;;;;;5.83;3.05;;;;;;;18.40;63.47;99215.09;1683650;83;21522;-42
2021/08/03 02:43:18;;;;;;;3.80;2.90;;;;;;;18.38;63.29;99212.78;1710476;83;21080;-41
2021/08/03 02:45:48;;;;;;;14.33;4.45;;;;;;;18.38;63.35;99213.38;1678992;83;21923;-42
2021/08/03 02:48:15;;;;;;;4.15;3.00;;;;;;;18.33;63.34;99222.85;1678681;85;20956;-42
2021/08/03 02:50:45;;;;;;;14.75;5.00;;;;;;;18.29;63.68;99220.76;1678788;85;21533;-42
2021/08/03 02:53:33;;;;;;;3.85;2.70;;;;;;;18.15;64.10;99229.20;1678647;85;21050;-42
2021/08/03 02:56:06;;;;;;;5.83;2.70;;;;;;;18.05;64.30;99224.03;1678934;84;21077;-42
2021/08/03 02:58:43;;;;;;;3.83;2.80;;;;;;;17.99;64.38;99223.52;1678579;85;21106;-42
2021/08/03 03:01:11;;;;;;;3.67;2.87;;;;;;;17.94;64.49;99220.65;1673741;85;21044;-42
2021/08/03 03:03:42;;;;;;;3.92;3.10;;;;;;;17.94;64.53;99225.36;1690259;84;21084;-41
2021/08/03 03:06:10;;;;;;;6.33;3.08;;;;;;;17.97;64.46;99232.16;1752730;81;21524;-42
2021/08/03 03:08:38;;;;;;;8.25;2.72;;;;;;;17.98;64.53;99230.20;1758660;81;21075;-42
2021/08/03 03:11:07;;;;;;;3.52;3.00;;;;;;;17.99;64.55;99232.53;1758815;81;21088;-42
2021/08/03 03:13:50;;;;;;;4.28;2.80;;;;;;;17.96;64.59;99235.33;1758634;81;21000;-42
2021/08/03 03:16:18;;;;;;;4.37;2.20;;;;;;;17.94;64.94;99232.21;1714300;81;21013;-42
2021/08/03 03:18:47;;;;;;;6.25;2.70;;;;;;;17.93;65.17;99245.14;1713519;82;20938;-41
2021/08/03 03:21:18;;;;;;;3.92;2.58;;;;;;;17.96;65.11;99243.56;1703422;83;21049;-42
2021/08/03 03:23:49;;;;;;;4.83;2.70;;;;;;;17.97;64.98;99243.72;1703516;83;21885;-42
2021/08/03 03:26:17;;;;;;;4.08;2.50;;;;;;;17.94;65.04;99250.04;1713920;83;21041;-42
2021/08/03 03:28:43;;;;;;;3.65;2.60;;;;;;;17.91;65.08;99247.51;1714602;83;21558;-42
2021/08/03 03:31:10;;;;;;;6.12;3.10;;;;;;;17.61;65.13;99208.53;1726217;83;20993;-42
2021/08/03 03:33:41;;;;;;;5.55;2.77;;;;;;;17.92;65.18;99248.29;1726517;81;21092;-41
2021/08/03 03:36:09;;;;;;;2.37;2.08;;;;;;;17.89;65.21;99257.34;1726486;83;21800;-41
2021/08/03 03:38:39;;;;;;;4.15;2.85;;;;;;;17.86;65.43;99263.67;1726469;83;21496;-41
2021/08/03 03:41:06;;;;;;;2.83;2.22;;;;;;;17.89;65.60;99264.20;1726336;83;20926;-41
2021/08/03 03:43:35;;;;;;;;;;;;;;;17.88;65.74;99261.27;1729071;82;20972;-41
2021/08/03 03:46:08;;;;;;;3.72;2.75;;;;;;;17.89;65.88;99258.72;1726418;81;20509;-41
2021/08/03 03:48:43;;;;;;;3.22;2.92;;;;;;;17.82;66.24;99265.06;1725750;82;21143;-41
2021/08/03 03:51:12;;;;;;;3.98;2.80;;;;;;;17.85;66.40;99271.11;1726322;83;20973;-41
2021/08/03 03:53:44;;;;;;;3.37;2.45;;;;;;;17.92;66.24;99270.23;1748249;81;20975;-41
2021/08/03 03:56:10;;;;;;;7.30;2.90;;;;;;;18.01;66.42;99279.52;1720327;83;21064;-41
2021/08/03 03:58:40;;;;;;;5.28;2.70;;;;;;;18.10;66.45;99273.55;1720781;83;21087;-41
2021/08/03 04:01:09;;;;;;;3.52;2.75;;;;;;;18.17;66.03;99276.19;1720588;83;21109;-41
2021/08/03 04:03:36;;;;;;;4.03;2.67;;;;;;;18.20;66.08;99276.13;1694070;83;21526;-41
2021/08/03 04:06:06;;;;;;;4.37;2.85;;;;;;;18.27;66.11;99275.27;1720352;82;20961;-41
2021/08/03 04:08:33;;;;;;;3.10;2.65;;;;;;;18.34;65.83;99275.19;1721031;83;22076;-41
2021/08/03 04:11:01;;;;;;;4.15;2.45;;;;;;;18.43;65.59;99275.45;1671119;83;21060;-41
2021/08/03 04:13:29;;;;;;;3.55;2.40;;;;;;;18.53;65.39;99271.80;1720849;83;21101;-41
2021/08/03 04:15:57;;;;;;;4.58;2.67;;;;;;;18.57;65.42;99273.89;1720186;83;20988;-41
2021/08/03 04:18:25;;;;;;;2.98;2.65;;;;;;;18.60;65.63;99272.27;1720489;83;21756;-41
2021/08/03 04:20:52;;;;;;;4.75;2.75;;;;;;;18.65;65.82;99272.59;1720425;83;21004;-41
2021/08/03 04:23:19;;;;;;;2.90;2.60;;;;;;;18.74;66.08;99269.91;1720418;83;21106;-41
2021/08/03 04:25:45;;;;;;;5.62;2.85;;;;;;;18.83;65.32;99267.43;1714262;83;21182;-41
2021/08/03 04:28:13;;;;;;;5.10;3.22;;;;;;;18.89;64.98;99265.73;1720403;83;21027;-41
2021/08/03 04:30:40;;;;;;;5.60;3.12;;;;;;;18.96;64.92;99275.25;1716478;83;21052;-41
2021/08/03 04:33:06;;;;;;;4.65;3.10;;;;;;;18.98;65.04;99271.48;1714939;83;21515;-41
2021/08/03 04:35:33;;;;;;;6.72;3.40;;;;;;;18.99;65.27;99276.56;1686535;85;21056;-41
2021/08/03 04:38:00;;;;;;;4.90;3.62;;;;;;;19.01;65.30;99267.91;1686460;85;21433;-41
2021/08/03 04:40:26;;;;;;;4.50;3.08;;;;;;;19.04;65.48;99267.06;1686222;85;21016;-42
2021/08/03 04:44:21;;;;;;;5.20;3.20;;;;;;;19.14;64.67;99275.72;1797014;79;22511;-41
2021/08/03 04:46:49;;;;;;;4.95;3.42;;;;;;;19.10;64.75;99273.64;1757046;80;21041;-41
2021/08/03 04:49:16;;;;;;;4.10;3.27;;;;;;;19.17;64.83;99273.50;1756937;81;22355;-41
2021/08/03 04:51:42;;;;;;;5.40;3.40;;;;;;;19.22;64.65;99278.52;1756838;81;21012;-41
2021/08/03 04:54:10;;;;;;;4.67;3.55;;;;;;;19.23;64.60;99278.70;1757038;81;21037;-41
2021/08/03 04:56:36;;;;;;;3.83;3.40;;;;;;;19.27;64.59;99277.27;1756955;81;21484;-41
2021/08/03 04:59:03;;;;;;;4.28;3.20;;;;;;;19.31;64.50;99274.66;1757080;81;20949;-42
2021/08/03 05:01:31;;;;;;;4.45;3.42;;;;;;;19.38;64.50;99274.52;1756876;81;21000;-41
2021/08/03 05:04:00;;;;;;;4.80;3.70;;;;;;;19.48;64.58;99276.92;1756863;81;21072;-41
2021/08/03 05:06:27;;;;;;;4.50;3.65;;;;;;;19.54;64.41;99279.36;1702501;83;21529;-41
2021/08/03 05:08:55;;;;;;;11.95;3.77;;;;;;;19.61;63.93;99283.94;1694456;84;21028;-41
2021/08/03 05:11:21;;;;;;;4.12;3.72;;;;;;;19.64;63.98;99276.23;1694566;84;21100;-41
2021/08/03 05:13:48;;;;;;;4.78;4.17;;;;;;;19.69;63.87;99284.00;1694501;84;21791;-41
2021/08/03 05:16:15;;;;;;;4.90;3.80;;;;;;;19.74;63.89;99279.38;1722890;83;21304;-41
2021/08/03 05:18:42;;;;;;;7.08;3.27;;;;;;;19.74;63.63;99275.26;1723506;83;20968;-42
2021/08/03 05:21:09;;;;;;;5.78;3.37;;;;;;;19.78;63.84;99273.98;1724089;83;21046;-42
2021/08/03 05:23:35;;;;;;;4.17;3.62;;;;;;;19.89;63.71;99276.53;1707340;83;21502;-42
2021/08/03 05:26:03;;;;;;;5.30;3.90;;;;;;;19.93;63.52;99279.98;1694558;84;21141;-41
2021/08/03 05:28:29;;;;;;;6.05;3.80;;;;;;;20.02;63.23;99283.53;1694443;84;20984;-41
2021/08/03 05:30:56;;;;;;;4.40;4.00;;;;;;;20.10;63.33;99289.06;1694414;84;21008;-41
2021/08/03 05:33:23;;;;;;;4.05;3.58;;;;;;;20.18;63.26;99287.13;1722165;83;21671;-41
2021/08/03 05:35:51;;;;;;;5.10;4.00;;;;;;;20.26;63.23;99284.98;1723426;83;21008;-41
2021/08/03 05:38:18;;;;;;;7.47;3.72;;;;;;;20.38;63.24;99287.13;1723468;83;21149;-41
2021/08/03 05:40:46;;;;;;;4.97;3.70;;;;;;;20.54;63.01;99288.52;1723418;83;20993;-41
2021/08/03 05:43:13;;;;;;;5.92;4.15;;;;;;;20.69;62.31;99293.09;1717054;83;21575;-42
2021/08/03 05:45:40;;;;;;;5.75;4.12;;;;;;;20.79;61.98;99292.86;1743828;81;21072;-42
2021/08/03 05:48:07;;;;;;;6.95;4.05;;;;;;;20.93;61.88;99297.84;1663705;84;21072;-42
2021/08/03 05:50:34;;;;;;;4.60;3.80;;;;;;;21.02;61.29;99290.52;1743938;82;21147;-42
2021/08/03 05:53:01;;;;;;;5.22;4.08;;;;;;;21.10;61.14;99295.28;1708013;84;20929;-42
2021/08/03 05:55:28;;;;;;;4.28;3.42;;;;;;;21.18;61.18;99297.45;1724893;82;21077;-42
2021/08/03 05:57:56;;;;;;;3.90;3.50;;;;;;;21.22;60.38;99299.51;1713593;83;21483;-42
2021/08/03 06:00:23;;;;;;;4.12;3.72;;;;;;;21.24;60.22;99299.08;1713608;83;21013;-42
2021/08/03 06:02:50;;;;;;;5.37;4.35;;;;;;;21.21;60.14;99306.82;1713635;83;21211;-42
2021/08/03 06:05:16;;;;;;;6.60;4.55;;;;;;;21.18;60.22;99311.23;1720851;81;20930;-42
2021/08/03 06:07:48;;;;;;;4.75;3.40;;;;;;;21.21;60.11;99313.11;1743390;82;20993;-42
2021/08/03 06:10:15;;;;;;;4.78;3.85;;;;;;;21.30;60.11;99310.37;1743017;81;21016;-42
2021/08/03 06:12:48;;;;;;;5.35;3.83;;;;;;;21.41;59.77;99310.25;1743410;81;21007;-42
2021/08/03 06:15:15;;;;;;;5.35;4.22;;;;;;;21.47;59.36;99314.64;1707397;84;21153;-41
2021/08/03 06:17:47;;;;;;;5.72;3.92;;;;;;;21.51;59.46;99318.08;1707406;84;20933;-42
2021/08/03 06:20:16;;;;;;;5.33;3.60;;;;;;;21.57;59.41;99312.21;1707508;82;21013;-42
2021/08/03 06:22:42;;;;;;;8.45;3.85;;;;;;;21.66;58.08;99320.03;1698760;84;20963;-42
2021/08/03 06:25:13;;;;;;;4.30;3.65;;;;;;;21.69;57.48;99322.52;1698814;84;21103;-42
2021/08/03 06:27:41;;;;;;;4.95;3.67;;;;;;;21.72;57.89;99325.80;1698641;83;23253;-42
2021/08/03 06:30:09;;;;;;;3.70;3.40;;;;;;;21.79;57.51;99329.73;1724534;83;21053;-42
2021/08/03 06:32:36;;;;;;;4.92;3.52;;;;;;;21.85;57.65;99334.12;1695860;84;21040;-42
2021/08/03 06:35:04;;;;;;;6.00;4.72;;;;;;;21.90;57.87;99334.97;1706724;83;21543;-42
2021/08/03 06:37:31;;;;;;;8.83;4.10;;;;;;;21.99;57.97;99334.53;1713893;83;21084;-42
2021/08/03 06:39:57;;;;;;;5.90;3.58;;;;;;;22.09;57.74;99344.50;1678953;85;21132;-42
2021/08/03 06:42:42;;;;;;;3.92;3.52;;;;;;;22.20;57.39;99346.19;1713657;83;21509;-42
2021/08/03 06:45:17;;;;;;;3.95;3.55;;;;;;;22.28;56.96;99350.29;1678736;83;21435;-42
2021/08/03 06:47:55;;;;;;;5.17;3.80;;;;;;;22.35;55.58;99352.86;1713811;83;21021;-42
2021/08/03 06:50:25;;;;;;;5.03;3.25;;;;;;;22.36;55.80;99349.67;1713875;83;21029;-42
2021/08/03 06:52:51;;;;;;;4.90;3.17;;;;;;;22.45;55.66;99349.02;1679354;85;21625;-42
2021/08/03 06:55:18;;;;;;;4.37;3.30;;;;;;;22.53;54.52;99350.34;1713407;83;20982;-42
2021/08/03 06:57:50;;;;;;;4.85;3.30;;;;;;;22.60;54.58;99354.29;1679118;85;21534;-42
2021/08/03 07:00:17;;;;;;;3.55;3.25;;;;;;;22.68;54.49;99354.23;1713764;83;20962;-42
2021/08/03 07:02:44;;;;;;;4.60;3.17;;;;;;;22.78;53.94;99351.00;1679303;85;21021;-42
2021/08/03 07:05:16;;;;;;;4.37;3.15;;;;;;;22.87;53.36;99351.89;1679082;84;21132;-42
2021/08/03 07:07:44;;;;;;;2.90;2.70;;;;;;;22.92;53.06;99349.95;1679092;85;20946;-42
2021/08/03 07:10:14;;;;;;;3.75;3.30;;;;;;;22.99;52.55;99355.10;1721070;82;21025;-42
2021/08/03 07:12:44;;;;;;;5.22;3.10;;;;;;;23.06;52.48;99350.71;1707720;83;20937;-42
2021/08/03 07:15:12;;;;;;;5.08;3.37;;;;;;;23.13;51.83;99354.65;1707583;84;21079;-42
2021/08/03 07:17:41;;;;;;;;;;;;;;;23.20;52.25;99361.31;1710010;84;21456;-42
2021/08/03 07:20:10;;;;;;;3.95;2.58;;;;;;;23.31;51.99;99363.13;1694118;84;20460;-42
2021/08/03 07:22:38;;;;;;;3.80;2.95;;;;;;;23.31;52.03;99352.84;1707627;84;20985;-42
2021/08/03 07:25:06;;;;;;;4.53;2.90;;;;;;;23.39;49.85;99359.68;1707350;84;22050;-42
2021/08/03 07:27:33;;;;;;;3.75;2.50;;;;;;;23.40;49.56;99352.16;1707639;84;21014;-42
2021/08/03 07:30:06;;;;;;;3.87;2.70;;;;;;;23.43;50.14;99354.02;1707017;83;21017;-42
2021/08/03 07:32:36;;;;;;;3.35;2.50;;;;;;;23.51;50.57;99356.77;1707188;83;21022;-42
2021/08/03 07:35:05;;;;;;;3.25;2.65;;;;;;;23.65;50.60;99357.66;1679304;84;21053;-42
2021/08/03 07:37:32;;;;;;;2.60;2.40;;;;;;;23.80;49.34;99346.26;1685561;84;21080;-42
2021/08/03 07:39:59;;;;;;;5.10;2.72;;;;;;;23.94;49.67;99349.13;1694786;84;21065;-42
2021/08/03 07:42:25;;;;;;;4.40;2.80;;;;;;;24.07;49.42;99348.45;1694949;84;21811;-42
2021/08/03 07:44:52;;;;;;;2.87;2.40;;;;;;;24.20;49.00;99348.43;1699218;83;21068;-42
2021/08/03 07:47:18;;;;;;;2.70;2.50;;;;;;;24.33;48.11;99342.80;1710221;83;20909;-42
2021/08/03 07:49:47;;;;;;;3.02;2.50;;;;;;;24.40;48.42;99346.06;1700158;84;21043;-42
2021/08/03 07:52:14;;;;;;;2.60;2.40;;;;;;;24.45;47.92;99348.25;1710052;83;21060;-42
2021/08/03 07:54:42;;;;;;;4.42;2.30;;;;;;;24.51;47.27;99344.28;1687875;84;21138;-42
2021/08/03 07:57:09;;;;;;;3.15;2.50;;;;;;;24.59;47.65;99350.48;1642296;87;20909;-42
2021/08/03 07:59:35;;;;;;;2.45;2.25;;;;;;;24.66;45.89;99349.45;1642082;86;20976;-42
2021/08/03 08:02:03;;;;;;;4.22;2.47;;;;;;;24.71;46.05;99349.47;1641944;87;21108;-42
2021/08/03 08:04:29;;;;;;;3.02;2.17;;;;;;;24.79;45.62;99352.11;1642113;87;21553;-42
2021/08/03 08:06:56;;;;;;;2.72;2.25;;;;;;;24.90;45.88;99351.89;1663920;85;21157;-42
2021/08/03 08:09:23;;;;;;;2.45;2.00;;;;;;;25.02;45.15;99348.86;1709840;83;21035;-42
2021/08/03 08:11:49;;;;;;;2.77;2.55;;;;;;;25.13;45.38;99340.86;1700518;84;21130;-42
2021/08/03 08:14:16;;;;;;;3.05;2.75;;;;;;;25.25;45.43;99346.92;1705231;83;21455;-42
2021/08/03 08:16:44;;;;;;;3.05;2.50;;;;;;;25.25;45.30;99346.92;1681348;85;20961;-42
2021/08/03 08:19:12;;;;;;;2.45;2.25;;;;;;;25.19;45.41;99346.58;1681281;85;21129;-42
2021/08/03 08:21:39;;;;;;;3.02;2.40;;;;;;;25.14;44.69;99347.19;1681318;85;21052;-42
2021/08/03 08:24:06;;;;;;;6.72;2.60;;;;;;;25.14;44.88;99339.64;1680873;85;20984;-42
2021/08/03 08:26:33;;;;;;;3.55;2.35;;;;;;;25.21;44.65;99336.59;1691508;84;21066;-42
2021/08/03 08:28:59;;;;;;;4.25;2.40;;;;;;;25.30;44.04;99337.98;1708976;83;21391;-42
2021/08/03 08:31:26;;;;;;;2.90;2.55;;;;;;;25.28;44.05;99340.44;1693449;84;21131;-42
2021/08/03 08:33:53;;;;;;;2.58;2.30;;;;;;;25.29;45.18;99339.83;1671886;85;21071;-42
2021/08/03 08:36:20;;;;;;;3.10;2.58;;;;;;;25.36;44.72;99333.38;1655349;85;21036;-42
2021/08/03 08:38:47;;;;;;;2.72;2.37;;;;;;;25.46;43.84;99339.08;1671940;85;21558;-42
2021/08/03 08:41:14;;;;;;;3.70;2.35;;;;;;;25.46;43.53;99334.17;1680473;84;21239;-42
2021/08/03 08:43:42;;;;;;;3.50;2.60;;;;;;;25.40;44.09;99335.39;1684066;83;21141;-42
2021/08/03 08:46:09;;;;;;;3.50;2.25;;;;;;;25.40;44.74;99332.61;1697837;83;21578;-42
2021/08/03 08:48:38;;;;;;;2.80;2.25;;;;;;;25.44;44.92;99330.45;1687605;84;21034;-42
2021/08/03 08:51:06;;;;;;;2.17;1.98;;;;;;;25.58;44.50;99332.49;1718697;83;21508;-42
2021/08/03 08:53:34;;;;;;;3.87;2.15;;;;;;;25.71;43.48;99332.49;1689884;84;21044;-42
2021/08/03 08:56:03;;;;;;;2.37;2.17;;;;;;;25.80;43.25;99327.58;1681385;84;21805;-42
2021/08/03 08:58:34;;;;;;;2.87;2.40;;;;;;;25.91;42.26;99330.64;1688408;85;20996;-42
2021/08/03 09:01:01;;;;;;;3.40;2.55;;;;;;;26.02;43.10;99334.34;1688056;85;21051;-42
2021/08/03 09:03:28;;;;;;;2.75;2.33;;;;;;;26.06;42.06;99316.27;1685888;84;21698;-42
2021/08/03 09:06:04;;;;;;;2.70;2.50;;;;;;;26.13;41.98;99317.36;1682526;84;21044;-42
2021/08/03 09:08:44;;;;;;;3.00;2.52;;;;;;;26.17;42.28;99317.19;1679139;84;21913;-42
2021/08/03 09:11:15;;;;;;;;;;;;;;;26.20;42.13;99310.69;1683586;84;21000;-42
2021/08/03 09:14:03;;;;;;;3.75;2.50;;;;;;;26.24;41.48;99311.31;1669087;86;20168;-42
2021/08/03 09:16:48;;;;;;;3.50;2.27;;;;;;;26.14;41.90;99307.76;1671000;84;21587;-42
2021/08/03 09:19:40;;;;;;;3.42;2.40;;;;;;;26.14;41.67;99305.63;1696857;84;21080;-42
2021/08/03 09:22:24;;;;;;;3.05;2.40;;;;;;;26.10;40.88;99292.48;1696150;84;23322;-42
2021/08/03 09:24:55;;;;;;;3.00;2.35;;;;;;;26.06;40.46;99299.60;1673542;84;21076;-42
2021/08/03 09:27:34;;;;;;;4.95;2.80;;;;;;;26.07;41.20;99301.15;1665400;86;21073;-42
2021/08/03 09:30:03;;;;;;;4.33;2.70;;;;;;;26.07;40.38;99292.81;1667069;86;21057;-42
2021/08/03 09:32:33;;;;;;;2.65;2.10;;;;;;;25.98;41.29;99287.28;1675957;84;21503;-42
2021/08/03 09:35:10;;;;;;;2.47;2.10;;;;;;;25.96;41.56;99290.52;1677733;84;21141;-42
2021/08/03 09:37:37;;;;;;;4.35;2.40;;;;;;;26.04;41.57;99290.98;1682052;84;21064;-42
2021/08/03 09:40:09;;;;;;;2.62;2.27;;;;;;;26.15;41.56;99281.52;1668707;84;21029;-42
2021/08/03 09:42:36;;;;;;;2.77;2.27;;;;;;;26.28;41.93;99283.55;1685458;84;21127;-42
2021/08/03 09:45:08;;;;;;;3.17;2.70;;;;;;;26.45;41.24;99291.50;1684393;84;21563;-43
2021/08/03 09:47:36;;;;;;;3.00;2.35;;;;;;;26.57;40.15;99282.97;1678504;85;21102;-42
2021/08/03 09:50:08;;;;;;;3.37;2.40;;;;;;;26.63;40.54;99277.52;1669704;86;20927;-42
2021/08/03 09:52:37;;;;;;;3.75;2.35;;;;;;;26.69;40.79;99286.15;1710403;82;20977;-42
2021/08/03 09:55:19;;;;;;;2.87;2.50;;;;;;;26.66;39.78;99279.38;1705120;82;21058;-43
2021/08/03 09:57:47;;;;;;;3.65;2.55;;;;;;;26.64;40.55;99277.05;1728780;82;21547;-42
2021/08/03 10:00:35;;;;;;;2.92;2.20;;;;;;;26.70;41.28;99271.63;1723423;82;21142;-42
2021/08/03 10:03:05;;;;;;;3.58;2.42;;;;;;;26.88;39.95;99280.52;1734627;82;21357;-42
2021/08/03 10:05:32;;;;;;;3.00;2.70;;;;;;;27.07;39.68;99275.77;1723655;82;21049;-42
2021/08/03 10:07:59;;;;;;;3.12;2.20;;;;;;;27.23;39.09;99275.36;1705380;83;20969;-42
2021/08/03 10:10:25;;;;;;;3.70;2.80;;;;;;;27.31;38.87;99269.41;1705035;84;21518;-42
2021/08/03 10:12:54;;;;;;;4.53;2.35;;;;;;;27.27;37.92;99266.05;1732880;82;21009;-42
2021/08/03 10:15:22;;;;;;;3.12;2.83;;;;;;;27.17;38.61;99272.30;1715666;82;20934;-42
2021/08/03 10:17:49;;;;;;;3.35;2.60;;;;;;;26.96;39.31;99274.16;1705318;84;20990;-42
2021/08/03 10:20:16;;;;;;;2.70;2.50;;;;;;;26.89;39.08;99271.71;1705718;82;21008;-42
2021/08/03 10:23:02;;;;;;;3.08;2.58;;;;;;;26.88;39.52;99273.56;1707947;82;21075;-42
2021/08/03 10:25:41;;;;;;;4.05;2.60;;;;;;;26.99;38.92;99271.80;1722939;82;21149;-42
2021/08/03 10:28:23;;;;;;;2.83;2.60;;;;;;;27.08;38.87;99273.14;1709463;82;20989;-42
2021/08/03 10:30:50;;;;;;;3.75;2.50;;;;;;;27.21;38.89;99270.88;1727773;82;20942;-42
2021/08/03 10:33:43;;;;;;;2.67;2.40;;;;;;;27.47;39.45;99268.99;1724780;82;20958;-44
2021/08/03 10:36:44;;;;;;;2.40;2.20;;;;;;;27.72;37.59;99269.89;1706877;82;21021;-44
2021/08/03 10:39:15;;;;;;;3.17;2.60;;;;;;;27.88;37.50;99272.23;1671086;85;21525;-44
2021/08/03 10:42:06;;;;;;;6.47;2.50;;;;;;;28.05;36.70;99267.70;1731479;82;20965;-43
2021/08/03 10:44:53;;;;;;;2.65;2.45;;;;;;;28.12;36.12;99267.22;1731988;81;20991;-43
2021/08/03 10:47:36;;;;;;;4.25;2.10;;;;;;;28.01;35.85;99265.73;1735198;82;21538;-42
2021/08/03 10:50:29;;;;;;;3.65;2.30;;;;;;;27.84;36.92;99275.03;1722862;82;21093;-43
2021/08/03 10:52:58;;;;;;;5.15;2.62;;;;;;;27.83;37.06;99275.68;1724388;82;21139;-42
2021/08/03 10:55:32;;;;;;;3.92;2.33;;;;;;;27.74;37.09;99268.03;1733225;82;21575;-43
2021/08/03 10:58:16;;;;;;;2.55;2.27;;;;;;;27.75;37.69;99273.11;1738613;82;20929;-42
2021/08/03 11:00:54;;;;;;;2.20;2.00;;;;;;;27.68;36.57;99273.50;1740790;82;21025;-42
2021/08/03 11:03:39;;;;;;;2.30;2.10;;;;;;;27.55;36.77;99271.58;1744659;82;21579;-42
2021/08/03 11:06:12;;;;;;;3.22;2.10;;;;;;;27.53;38.07;99266.50;1746808;80;21507;-42
2021/08/03 11:08:45;;;;;;;2.62;1.90;;;;;;;27.72;37.33;99262.93;1734102;82;21052;-42
2021/08/03 11:11:25;;;;;;;2.20;2.00;;;;;;;27.98;36.43;99263.16;1732976;82;20981;-41
2021/08/03 11:14:08;;;;;;;2.12;1.70;;;;;;;28.11;35.55;99259.47;1739732;82;21013;-41
2021/08/03 11:16:43;;;;;;;2.30;1.90;;;;;;;28.18;35.09;99266.66;1748852;82;21484;-41
2021/08/03 11:19:28;;;;;;;3.05;2.02;;;;;;;28.12;36.32;99262.41;1727204;82;21766;-41
2021/08/03 11:21:54;;;;;;;2.98;1.92;;;;;;;28.03;35.92;99259.05;1717678;83;21609;-42
2021/08/03 11:24:37;;;;;;;1.82;1.72;;;;;;;28.11;35.25;99256.69;1718044;82;21504;-41
2021/08/03 11:27:04;;;;;;;2.15;1.90;;;;;;;28.21;36.27;99250.38;1719386;82;21539;-41
2021/08/03 11:29:41;;;;;;;2.12;1.92;;;;;;;28.38;35.33;99244.44;1741707;82;21072;-41
2021/08/03 11:32:09;;;;;;;4.05;2.10;;;;;;;28.43;35.23;99252.13;1718780;83;21129;-41
2021/08/03 11:34:39;;;;;;;2.10;1.90;;;;;;;28.61;35.29;99243.52;1719422;83;20970;-42
2021/08/03 11:37:18;;;;;;;2.10;1.85;;;;;;;28.87;35.12;99245.83;1719050;82;20988;-41
2021/08/03 11:39:57;;;;;;;3.95;2.10;;;;;;;29.17;33.59;99236.70;1719312;83;21566;-42
2021/08/03 11:42:40;;;;;;;2.35;1.70;;;;;;;29.44;32.68;99241.09;1718335;83;26140;-42
2021/08/03 11:45:16;;;;;;;2.22;2.00;;;;;;;29.48;32.70;99240.91;1742679;81;21122;-42
2021/08/03 11:47:52;;;;;;;1.98;1.77;;;;;;;29.39;32.38;99250.18;1713910;82;21540;-41
2021/08/03 11:50:33;;;;;;;2.90;1.70;;;;;;;29.35;32.86;99243.42;1734381;82;21001;-42
2021/08/03 11:53:15;;;;;;;2.15;1.95;;;;;;;29.47;32.92;99252.70;1731927;82;20954;-41
2021/08/03 11:55:46;;;;;;;2.65;1.98;;;;;;;29.61;32.13;99237.88;1705043;82;21587;-42